Time;durP1;ratioP1;P1;durP2;ratioP2;P2;SDS_P1;SDS_P2;PMS_P1;PMS_P2;Temp;Humidity;BMP_temperature;BMP_pressure;BME280_temperature;BME280_humidity;BME280_pressure;Samples;Min_cycle;Max_cycle;Signal;HPM_P1;HPM_P2
2022/05/31 00:00:06;;;;;;;6.40;5.70;;;;;;;10.21;60.90;100870.94;679415;29;1436;-81
2022/05/31 00:00:51;;;;;;;6.25;5.50;;;;;;;10.23;61.19;100876.25;682520;28;1460;-80
2022/05/31 00:01:15;;;;;;;6.35;5.55;;;;;;;10.17;61.11;100860.38;687439;28;1614;-81
2022/05/31 00:01:37;;;;;;;6.50;5.57;;;;;;;10.21;60.97;100870.09;685527;28;1395;-81
2022/05/31 00:02:00;;;;;;;6.35;5.40;;;;;;;10.22;61.13;100877.06;685440;28;1106;-81
2022/05/31 00:02:23;;;;;;;5.85;5.25;;;;;;;10.19;60.92;100866.56;684995;28;1272;-81
2022/05/31 00:02:44;;;;;;;5.82;5.18;;;;;;;10.21;60.81;100870.09;687836;28;1382;-81
2022/05/31 00:03:05;;;;;;;6.53;4.85;;;;;;;10.19;60.96;100872.63;685407;28;914;-81
2022/05/31 00:03:26;;;;;;;6.82;5.07;;;;;;;10.15;60.90;100865.56;679697;29;1655;-81
2022/05/31 00:03:47;;;;;;;6.80;5.20;;;;;;;10.10;60.63;100862.81;687485;28;1626;-80
2022/05/31 00:04:08;;;;;;;6.30;5.30;;;;;;;10.08;60.67;100853.16;687875;28;1374;-81
2022/05/31 00:04:29;;;;;;;6.57;5.40;;;;;;;10.15;60.94;100874.25;685329;28;1246;-81
2022/05/31 00:04:51;;;;;;;6.43;5.20;;;;;;;10.14;60.94;100866.41;685177;28;1518;-81
2022/05/31 00:05:12;;;;;;;8.32;5.47;;;;;;;10.14;60.63;100869.03;682311;29;1065;-81
2022/05/31 00:05:33;;;;;;;8.40;5.35;;;;;;;10.06;60.59;100850.50;687258;28;1198;-80
2022/05/31 00:05:53;;;;;;;7.53;5.22;;;;;;;10.05;60.91;100848.75;692694;28;1372;-80
2022/05/31 00:06:14;;;;;;;6.70;5.10;;;;;;;10.05;60.95;100856.56;690810;28;1124;-80
2022/05/31 00:06:35;;;;;;;5.90;4.78;;;;;;;10.05;60.98;100856.56;685233;28;2001;-81
2022/05/31 00:06:56;;;;;;;6.35;4.82;;;;;;;10.07;61.03;100857.50;682643;29;1343;-81
2022/05/31 00:07:17;;;;;;;5.85;4.80;;;;;;;10.04;61.07;100854.78;685415;28;1481;-82
2022/05/31 00:07:39;;;;;;;6.00;4.70;;;;;;;10.12;60.68;100865.44;690243;28;1578;-81
2022/05/31 00:08:00;;;;;;;6.43;4.60;;;;;;;10.03;60.87;100855.63;690322;28;1468;-81
2022/05/31 00:08:20;;;;;;;6.60;4.63;;;;;;;10.08;61.04;100859.25;685407;28;1450;-81
2022/05/31 00:08:41;;;;;;;7.03;4.90;;;;;;;10.03;60.80;100847.81;687592;28;1049;-81
2022/05/31 00:09:02;;;;;;;6.13;4.90;;;;;;;10.11;60.98;100863.69;688128;28;1437;-81
2022/05/31 00:09:23;;;;;;;6.10;5.05;;;;;;;10.06;61.11;100853.13;685403;28;1208;-80
2022/05/31 00:09:44;;;;;;;6.05;5.20;;;;;;;10.04;61.12;100852.19;680204;29;1487;-81
2022/05/31 00:10:06;;;;;;;5.78;5.18;;;;;;;10.08;61.14;100867.06;682788;29;1089;-81
2022/05/31 00:10:27;;;;;;;6.65;4.97;;;;;;;10.08;60.97;100864.47;685108;28;1444;-81
2022/05/31 00:10:48;;;;;;;6.43;4.80;;;;;;;10.03;61.18;100859.94;685588;28;732;-81
2022/05/31 00:11:08;;;;;;;6.10;4.53;;;;;;;10.08;61.03;100868.81;682625;29;985;-81
2022/05/31 00:11:29;;;;;;;6.70;4.63;;;;;;;10.00;61.01;100852.91;687467;28;1147;-80
2022/05/31 00:11:50;;;;;;;7.63;4.75;;;;;;;10.03;61.42;100854.75;686790;28;1680;-81
2022/05/31 00:12:11;;;;;;;8.10;5.00;;;;;;;10.07;61.36;100860.09;688093;28;985;-81
2022/05/31 00:12:33;;;;;;;5.75;4.70;;;;;;;9.99;61.30;100845.94;685177;28;1257;-81
2022/05/31 00:12:53;;;;;;;6.40;5.10;;;;;;;10.01;61.13;100855.56;685136;28;1674;-81
2022/05/31 00:13:14;;;;;;;7.00;5.30;;;;;;;9.99;61.05;100845.94;690578;28;1496;-81
2022/05/31 00:13:34;;;;;;;7.57;5.60;;;;;;;10.07;61.42;100861.84;687700;28;2062;-81
2022/05/31 00:13:55;;;;;;;9.93;5.50;;;;;;;10.01;61.42;100846.84;682646;29;818;-81
2022/05/31 00:14:16;;;;;;;10.10;5.50;;;;;;;10.08;61.53;100863.59;684959;28;1318;-81
2022/05/31 00:14:37;;;;;;;9.25;5.28;;;;;;;9.99;61.52;100851.16;685233;28;1320;-81
2022/05/31 00:14:59;;;;;;;7.18;5.60;;;;;;;10.06;61.82;100860.94;687994;28;1861;-80
2022/05/31 00:15:22;;;;;;;6.93;5.43;;;;;;;10.05;61.81;100859.16;687506;28;1287;-81
2022/05/31 00:15:42;;;;;;;8.30;5.35;;;;;;;10.00;61.38;100850.31;682432;29;1522;-81
2022/05/31 00:16:03;;;;;;;7.82;5.15;;;;;;;10.04;61.60;100852.19;682595;29;1124;-80
2022/05/31 00:16:24;;;;;;;6.65;5.30;;;;;;;10.06;61.47;100860.06;687828;28;1788;-80
2022/05/31 00:16:45;;;;;;;5.90;5.13;;;;;;;9.99;61.52;100848.53;683770;28;1144;-81
2022/05/31 00:17:06;;;;;;;5.65;5.07;;;;;;;10.01;61.73;100854.69;680046;29;1261;-81
2022/05/31 00:17:27;;;;;;;6.63;5.03;;;;;;;10.05;61.49;100863.47;685476;28;1394;-81
2022/05/31 00:17:47;;;;;;;6.82;5.20;;;;;;;9.97;61.73;100845.00;687863;28;1552;-81
2022/05/31 00:18:08;;;;;;;8.93;5.30;;;;;;;9.99;61.69;100854.66;688137;28;968;-82
2022/05/31 00:18:29;;;;;;;9.20;5.20;;;;;;;9.90;61.80;100837.81;684688;28;1155;-81
2022/05/31 00:18:49;;;;;;;10.35;5.30;;;;;;;9.94;61.68;100851.00;679827;29;1264;-81
2022/05/31 00:19:10;;;;;;;8.10;5.20;;;;;;;9.96;61.62;100857.13;686330;28;1329;-81
2022/05/31 00:19:34;;;;;;;6.77;5.27;;;;;;;9.97;61.62;100855.44;686471;28;1235;-81
2022/05/31 00:19:54;;;;;;;5.63;5.13;;;;;;;9.95;61.72;100854.50;685060;28;863;-81
2022/05/31 00:20:15;;;;;;;7.47;5.97;;;;;;;9.89;61.87;100843.88;685424;28;1089;-80
2022/05/31 00:20:36;;;;;;;7.40;5.97;;;;;;;9.95;61.85;100862.31;682359;28;1303;-80
2022/05/31 00:20:56;;;;;;;7.60;5.97;;;;;;;9.91;61.66;100856.13;680209;29;1763;-81
2022/05/31 00:21:17;;;;;;;6.10;5.50;;;;;;;9.84;61.72;100838.53;681807;29;1242;-81
2022/05/31 00:22:08;;;;;;;7.23;5.40;;;;;;;9.85;61.83;100845.50;679984;29;1180;-81
2022/05/31 00:22:33;;;;;;;10.40;6.20;;;;;;;9.90;61.82;100845.66;677858;29;1279;-82
2022/05/31 00:22:54;;;;;;;7.55;6.10;;;;;;;9.85;61.98;100851.59;682032;29;1360;-81
2022/05/31 00:23:15;;;;;;;6.75;5.50;;;;;;;9.79;61.80;100835.78;683095;28;1369;-81
2022/05/31 00:23:39;;;;;;;6.78;5.30;;;;;;;9.85;62.04;100846.38;684772;28;1608;-80
2022/05/31 00:24:00;;;;;;;6.95;5.13;;;;;;;9.83;61.78;100837.63;683242;28;1210;-81
2022/05/31 00:24:22;;;;;;;7.13;5.07;;;;;;;9.88;62.09;100845.59;682189;29;2255;-81
2022/05/31 00:24:42;;;;;;;7.55;5.40;;;;;;;9.82;61.92;100841.06;682871;28;1391;-81
2022/05/31 00:25:06;;;;;;;7.10;5.50;;;;;;;9.80;61.85;100834.94;685364;28;1277;-81
2022/05/31 00:25:26;;;;;;;7.53;5.72;;;;;;;9.81;61.94;100839.31;685247;28;1109;-80
2022/05/31 00:25:47;;;;;;;6.67;5.60;;;;;;;9.80;62.10;100842.75;685077;28;1306;-80
2022/05/31 00:26:08;;;;;;;7.10;5.40;;;;;;;9.82;61.84;100845.38;687959;28;1282;-82
2022/05/31 00:26:29;;;;;;;7.17;5.77;;;;;;;9.86;61.92;100853.38;688093;28;1285;-81
2022/05/31 00:26:50;;;;;;;7.80;6.00;;;;;;;9.86;62.19;100853.38;682520;29;1511;-81
2022/05/31 00:27:13;;;;;;;8.45;6.07;;;;;;;9.84;62.31;100849.81;680089;29;1395;-80
2022/05/31 00:27:35;;;;;;;8.43;5.85;;;;;;;9.87;62.10;100854.25;681135;29;1257;-80
2022/05/31 00:27:56;;;;;;;7.25;5.82;;;;;;;9.81;62.13;100847.13;689919;28;1367;-81
2022/05/31 00:28:16;;;;;;;6.25;5.65;;;;;;;9.78;62.09;100840.91;685352;28;1130;-81
2022/05/31 00:28:37;;;;;;;6.47;5.80;;;;;;;9.83;62.22;100850.66;686828;28;1062;-81
2022/05/31 00:28:58;;;;;;;6.78;6.00;;;;;;;9.79;62.09;100845.28;685304;28;1443;-82
2022/05/31 00:29:19;;;;;;;6.85;5.90;;;;;;;9.84;61.86;100849.81;685220;28;1122;-81
2022/05/31 00:29:39;;;;;;;6.10;5.40;;;;;;;9.81;61.97;100844.50;690125;28;1091;-81
2022/05/31 00:30:00;;;;;;;5.88;5.07;;;;;;;9.76;62.23;100838.25;690845;28;823;-81
2022/05/31 00:30:20;;;;;;;6.90;5.50;;;;;;;9.79;61.87;100846.19;685151;28;1337;-81
2022/05/31 00:30:41;;;;;;;7.30;5.90;;;;;;;9.77;62.00;100846.97;679889;29;1390;-81
2022/05/31 00:31:04;;;;;;;7.68;6.30;;;;;;;9.78;62.06;100839.22;687329;28;1815;-81
2022/05/31 00:31:25;;;;;;;7.78;6.22;;;;;;;9.78;61.89;100840.91;682241;28;1776;-81
2022/05/31 00:31:48;;;;;;;6.70;5.68;;;;;;;9.78;61.99;100838.31;685338;28;1275;-81
2022/05/31 00:32:11;;;;;;;5.50;5.00;;;;;;;9.82;62.07;100840.16;682735;29;1057;-81
2022/05/31 00:32:34;;;;;;;6.30;5.20;;;;;;;9.74;61.91;100832.13;677354;29;1417;-81
2022/05/31 00:32:55;;;;;;;8.07;5.75;;;;;;;9.78;61.85;100841.81;682221;29;1439;-80
2022/05/31 00:33:16;;;;;;;8.43;6.00;;;;;;;9.83;61.88;100841.97;682583;29;1061;-81
2022/05/31 00:33:36;;;;;;;8.40;6.07;;;;;;;9.84;61.92;100843.72;685059;28;1584;-80
2022/05/31 00:33:58;;;;;;;8.15;5.72;;;;;;;9.83;62.18;100842.84;685355;28;1362;-81
2022/05/31 00:34:18;;;;;;;9.10;5.90;;;;;;;9.77;61.76;100834.81;687544;28;1292;-81
2022/05/31 00:34:44;;;;;;;9.00;5.80;;;;;;;9.87;62.02;100843.81;688804;28;1455;-81
2022/05/31 00:35:09;;;;;;;6.63;5.40;;;;;;;9.80;61.99;100832.31;680174;29;1375;-80
2022/05/31 00:35:34;;;;;;;5.93;5.32;;;;;;;9.83;62.32;100835.00;687419;28;1112;-80
2022/05/31 00:35:54;;;;;;;6.97;5.53;;;;;;;9.90;62.31;100843.03;685400;28;1327;-81
2022/05/31 00:36:16;;;;;;;7.50;5.45;;;;;;;9.88;62.19;100840.38;679907;29;1387;-81
2022/05/31 00:36:38;;;;;;;7.13;5.70;;;;;;;9.83;62.37;100836.75;683148;28;1313;-81
2022/05/31 00:37:00;;;;;;;6.63;5.72;;;;;;;9.85;62.47;100830.72;688023;28;1523;-81
2022/05/31 00:37:21;;;;;;;6.65;6.00;;;;;;;9.90;62.13;100840.44;685051;28;1244;-81
2022/05/31 00:37:43;;;;;;;6.78;5.80;;;;;;;9.82;62.06;100828.03;679901;29;1265;-81
2022/05/31 00:38:04;;;;;;;7.30;5.80;;;;;;;9.91;62.16;100831.78;680084;29;1003;-81
2022/05/31 00:38:25;;;;;;;7.55;5.65;;;;;;;9.90;62.09;100843.03;682679;29;950;-80
2022/05/31 00:38:46;;;;;;;7.30;5.78;;;;;;;9.89;62.10;100830.84;681787;29;1301;-81
2022/05/31 00:39:07;;;;;;;6.72;6.00;;;;;;;9.87;62.16;100833.38;682633;29;1815;-80
2022/05/31 00:39:27;;;;;;;6.40;5.70;;;;;;;9.82;62.18;100820.22;676501;29;1291;-81
2022/05/31 00:39:48;;;;;;;6.13;5.50;;;;;;;9.83;62.05;100831.53;680444;29;1922;-81
2022/05/31 00:40:10;;;;;;;6.28;5.30;;;;;;;9.89;62.21;100841.28;682983;28;978;-80
2022/05/31 00:40:33;;;;;;;6.90;5.60;;;;;;;9.91;61.97;100839.59;690401;28;1217;-81
2022/05/31 00:41:23;;;;;;;7.28;5.80;;;;;;;9.80;62.10;100827.13;686538;28;1679;-80
2022/05/31 00:41:39;;;;;;;6.40;5.70;;;;;;;9.82;61.71;100835.84;687643;28;2283;-81
2022/05/31 00:42:04;;;;;;;7.10;5.80;;;;;;;9.79;61.76;100834.88;682625;29;784;-80
2022/05/31 00:42:25;;;;;;;8.00;6.10;;;;;;;9.83;62.03;100841.97;685883;28;1077;-80
2022/05/31 00:42:50;;;;;;;9.25;6.18;;;;;;;9.79;61.84;100840.97;686655;28;1293;-81
2022/05/31 00:43:20;;;;;;;8.48;6.00;;;;;;;9.83;62.08;100840.22;685384;28;977;-81
2022/05/31 00:43:40;;;;;;;11.55;6.18;;;;;;;9.79;62.19;100838.38;679841;29;1541;-80
2022/05/31 00:44:04;;;;;;;10.27;5.87;;;;;;;9.79;61.85;100840.97;680144;29;856;-81
2022/05/31 00:44:28;;;;;;;8.25;5.50;;;;;;;9.81;61.88;100841.91;683892;28;1064;-81
2022/05/31 00:44:49;;;;;;;6.55;5.30;;;;;;;9.74;62.00;100837.34;686977;28;898;-80
2022/05/31 00:45:10;;;;;;;6.80;5.40;;;;;;;9.74;61.90;100832.13;684098;28;1278;-81
2022/05/31 00:45:35;;;;;;;7.78;5.63;;;;;;;9.78;61.85;100847.03;685261;28;1034;-81
2022/05/31 00:46:03;;;;;;;7.78;5.88;;;;;;;9.74;62.12;100837.34;682612;29;2063;-81
2022/05/31 00:46:28;;;;;;;8.57;6.28;;;;;;;9.74;61.97;100847.75;682570;28;1380;-81
2022/05/31 00:46:53;;;;;;;7.82;5.90;;;;;;;9.73;61.81;100851.19;684951;28;2005;-81
2022/05/31 00:47:33;;;;;;;6.60;5.70;;;;;;;9.69;62.10;100842.41;685396;28;1420;-81
2022/05/31 00:47:55;;;;;;;7.63;6.53;;;;;;;9.63;62.06;100836.09;685819;28;1707;-81
2022/05/31 00:48:23;;;;;;;7.00;6.30;;;;;;;9.60;61.94;100835.16;677335;29;1325;-80
2022/05/31 00:49:01;;;;;;;6.20;5.60;;;;;;;9.59;62.34;100841.19;677065;29;2091;-80
2022/05/31 00:49:45;;;;;;;6.50;5.45;;;;;;;9.62;62.28;100843.03;683305;28;991;-81
2022/05/31 00:50:08;;;;;;;6.80;5.30;;;;;;;9.61;62.22;100841.25;686752;28;1169;-81
2022/05/31 00:50:34;;;;;;;6.55;5.60;;;;;;;9.56;62.31;100837.59;687444;28;1375;-81
2022/05/31 00:50:59;;;;;;;6.78;5.70;;;;;;;9.60;62.07;100845.56;682541;29;1395;-80
2022/05/31 00:51:20;;;;;;;9.90;5.63;;;;;;;9.50;62.33;100821.75;682556;29;1090;-81
2022/05/31 00:51:48;;;;;;;10.33;5.97;;;;;;;9.57;62.11;100840.28;680295;29;1558;-81
2022/05/31 00:52:24;;;;;;;9.98;6.20;;;;;;;9.58;62.46;100842.03;687913;28;961;-81
2022/05/31 00:52:51;;;;;;;6.53;5.82;;;;;;;9.55;62.25;100841.94;684417;28;1454;-80
2022/05/31 00:53:20;;;;;;;6.82;6.03;;;;;;;9.54;62.21;100840.19;680109;29;1223;-81
2022/05/31 00:53:47;;;;;;;6.78;5.93;;;;;;;9.53;62.60;100841.00;682154;29;1443;-80
2022/05/31 00:54:13;;;;;;;6.55;5.85;;;;;;;9.52;62.30;100841.81;681315;29;1669;-81
2022/05/31 00:54:38;;;;;;;6.38;5.78;;;;;;;9.45;62.67;100826.81;684284;28;1132;-80
2022/05/31 00:55:05;;;;;;;6.82;5.50;;;;;;;9.55;62.40;100841.94;683570;28;1185;-81
2022/05/31 00:55:48;;;;;;;7.32;5.80;;;;;;;9.55;62.51;100838.44;690281;28;1305;-81
2022/05/31 00:56:20;;;;;;;6.70;5.57;;;;;;;9.56;62.63;100838.50;687988;28;1061;-81
2022/05/31 00:56:44;;;;;;;7.13;5.90;;;;;;;9.52;62.62;100836.63;689332;28;1456;-80
2022/05/31 00:57:11;;;;;;;7.05;6.13;;;;;;;9.51;62.28;100829.63;687888;28;1045;-81
2022/05/31 00:57:35;;;;;;;7.97;6.28;;;;;;;9.52;62.42;100826.19;687917;28;1195;-81
2022/05/31 00:58:04;;;;;;;9.68;6.43;;;;;;;9.53;62.34;100824.50;682484;29;1687;-80
2022/05/31 00:58:24;;;;;;;11.70;6.85;;;;;;;9.63;62.52;100834.38;679743;29;2379;-81
2022/05/31 00:58:58;;;;;;;10.38;6.35;;;;;;;9.58;62.61;100830.72;685145;28;1302;-81
2022/05/31 00:59:32;;;;;;;8.27;6.10;;;;;;;9.62;62.71;100831.69;687238;28;980;-81
2022/05/31 00:59:56;;;;;;;7.43;6.20;;;;;;;9.59;62.21;100829.91;679990;29;1614;-80
2022/05/31 01:00:17;;;;;;;7.10;6.40;;;;;;;9.60;62.61;100829.94;690610;28;1079;-80
2022/05/31 01:00:40;;;;;;;7.00;6.20;;;;;;;9.63;62.28;100828.28;682324;28;1411;-81
2022/05/31 01:01:08;;;;;;;7.35;6.00;;;;;;;9.67;62.27;100836.25;682450;29;1421;-81
2022/05/31 01:01:30;;;;;;;8.80;5.90;;;;;;;9.62;62.32;100823.88;682153;29;2377;-81
2022/05/31 01:01:53;;;;;;;8.90;6.13;;;;;;;9.62;62.27;100823.88;679899;29;976;-81
2022/05/31 01:02:17;;;;;;;8.30;6.40;;;;;;;9.62;62.15;100826.50;676978;29;1789;-80
2022/05/31 01:03:30;;;;;;;7.40;6.60;;;;;;;9.73;62.26;100835.56;679567;29;2070;-80
2022/05/31 01:04:00;;;;;;;7.50;6.30;;;;;;;9.68;62.45;100821.50;683176;28;854;-81
2022/05/31 01:04:31;;;;;;;7.30;6.18;;;;;;;9.65;62.02;100822.28;678249;28;2454;-81
2022/05/31 01:05:00;;;;;;;6.85;6.07;;;;;;;9.73;62.16;100830.34;682391;28;2064;-81
2022/05/31 01:05:21;;;;;;;7.20;6.00;;;;;;;9.68;62.14;100832.81;677291;29;1110;-80
2022/05/31 01:05:41;;;;;;;8.20;6.18;;;;;;;9.67;62.17;100820.63;683678;28;1502;-81
2022/05/31 01:06:02;;;;;;;7.57;6.27;;;;;;;9.70;62.19;100831.13;682660;28;1145;-81
2022/05/31 01:06:23;;;;;;;7.50;6.10;;;;;;;9.67;62.46;100828.44;682527;29;1514;-80
2022/05/31 01:06:44;;;;;;;6.63;5.90;;;;;;;9.72;62.22;100834.66;681623;29;1978;-80
2022/05/31 01:07:06;;;;;;;7.00;6.10;;;;;;;9.69;61.98;100823.25;682129;29;1181;-81
2022/05/31 01:07:28;;;;;;;7.25;6.10;;;;;;;9.74;62.00;100837.34;685053;28;1116;-80
2022/05/31 01:07:48;;;;;;;6.80;6.10;;;;;;;9.70;62.31;100832.84;687631;28;819;-81
2022/05/31 01:08:10;;;;;;;7.03;6.20;;;;;;;9.65;61.99;100821.41;682489;29;1724;-81
2022/05/31 01:08:59;;;;;;;8.35;6.10;;;;;;;9.70;61.91;100836.34;678270;29;1752;-81
2022/05/31 01:09:27;;;;;;;8.82;5.88;;;;;;;9.62;62.21;100821.28;677047;29;1032;-80
2022/05/31 01:10:22;;;;;;;6.93;5.95;;;;;;;9.63;62.13;100838.72;672986;29;1750;-81
2022/05/31 01:11:03;;;;;;;8.57;6.13;;;;;;;9.62;62.05;100829.09;679101;29;1217;-80
2022/05/31 01:11:43;;;;;;;6.88;5.95;;;;;;;9.59;62.19;100828.16;683910;28;1289;-80
2022/05/31 01:12:24;;;;;;;6.60;5.43;;;;;;;9.49;62.40;100815.69;682525;29;1351;-81
2022/05/31 01:13:04;;;;;;;7.80;6.00;;;;;;;9.51;62.37;100824.44;685047;28;1060;-81
2022/05/31 01:13:43;;;;;;;7.05;6.00;;;;;;;9.52;62.56;100826.19;685334;28;1261;-81
2022/05/31 01:14:35;;;;;;;6.57;5.60;;;;;;;9.47;62.57;100833.00;689511;28;1435;-81
2022/05/31 01:15:34;;;;;;;7.65;6.15;;;;;;;9.41;62.40;100819.75;689478;28;2264;-81
2022/05/31 01:16:14;;;;;;;7.32;5.85;;;;;;;9.36;62.43;100819.59;693527;28;787;-81
2022/05/31 01:17:17;;;;;;;7.47;5.70;;;;;;;9.34;62.41;100822.97;690719;28;673;-81
2022/05/31 01:18:04;;;;;;;6.40;5.78;;;;;;;9.33;62.44;100829.91;687296;28;1252;-81
2022/05/31 01:18:27;;;;;;;6.60;5.90;;;;;;;9.29;62.42;100823.69;689234;28;1187;-81
2022/05/31 01:20:22;;;;;;;8.23;6.40;;;;;;;9.24;62.68;100811.34;676746;29;1695;-81
2022/05/31 01:20:51;;;;;;;8.35;6.15;;;;;;;9.37;62.68;100830.88;672489;29;1091;-81
2022/05/31 01:21:30;;;;;;;7.55;6.78;;;;;;;9.37;62.61;100825.69;694902;28;20608;-82
2022/05/31 01:22:08;;;;;;;7.25;6.40;;;;;;;9.34;62.29;100828.19;695564;28;1020;-81
2022/05/31 01:22:50;;;;;;;6.95;5.80;;;;;;;9.36;62.38;100826.53;690113;28;1121;-82
2022/05/31 01:23:17;;;;;;;6.80;5.90;;;;;;;9.40;62.49;100833.63;684671;28;1283;-82
2022/05/31 01:23:45;;;;;;;6.70;5.85;;;;;;;9.39;62.50;100832.72;688140;28;1296;-82
2022/05/31 01:24:15;;;;;;;7.65;6.15;;;;;;;9.38;62.32;100833.56;684880;28;1220;-81
2022/05/31 01:24:47;;;;;;;9.02;6.30;;;;;;;9.41;62.54;100838.00;687930;28;2187;-82
2022/05/31 01:25:23;;;;;;;8.93;6.30;;;;;;;9.42;62.29;100840.66;686888;28;1260;-82
2022/05/31 01:26:05;;;;;;;8.50;6.40;;;;;;;9.44;62.40;100846.78;686996;28;1316;-81
2022/05/31 01:26:44;;;;;;;8.10;6.15;;;;;;;9.44;62.54;100845.91;691406;28;993;-82
2022/05/31 01:27:14;;;;;;;8.43;6.65;;;;;;;9.47;62.18;100843.41;691946;28;1535;-82
2022/05/31 01:28:12;;;;;;;10.68;7.05;;;;;;;9.47;62.13;100846.03;689485;28;1475;-81
2022/05/31 01:29:22;;;;;;;7.72;6.50;;;;;;;9.48;62.42;100845.19;689957;28;1068;-82
2022/05/31 01:29:44;;;;;;;10.95;6.22;;;;;;;9.42;62.31;100829.34;686332;28;1231;-82
2022/05/31 01:30:07;;;;;;;10.68;6.53;;;;;;;9.43;62.37;100833.72;687235;28;1301;-82
2022/05/31 01:30:31;;;;;;;7.88;6.50;;;;;;;9.46;62.40;100841.63;684211;28;2387;-81
2022/05/31 01:31:05;;;;;;;7.60;6.40;;;;;;;9.40;62.62;100831.00;682416;28;1303;-82
2022/05/31 01:31:39;;;;;;;6.55;5.85;;;;;;;9.45;62.34;100840.75;682168;28;1109;-82
2022/05/31 01:32:13;;;;;;;7.25;6.00;;;;;;;9.44;62.48;100843.28;686508;28;1745;-82
2022/05/31 01:32:43;;;;;;;7.05;6.10;;;;;;;9.36;62.42;100829.13;679842;28;2039;-81
2022/05/31 01:33:15;;;;;;;12.65;6.60;;;;;;;9.37;62.28;100830.88;684505;28;1982;-81
2022/05/31 01:33:46;;;;;;;12.57;6.80;;;;;;;9.42;62.59;100834.53;685927;28;1148;-82
2022/05/31 01:34:18;;;;;;;9.38;6.70;;;;;;;9.40;62.34;100841.44;687037;28;2004;-81
2022/05/31 01:34:45;;;;;;;8.77;6.60;;;;;;;9.37;62.45;100841.31;687267;28;2028;-82
2022/05/31 01:35:17;;;;;;;8.45;6.40;;;;;;;9.30;62.66;100827.19;681850;29;1385;-81
2022/05/31 01:35:38;;;;;;;9.07;6.22;;;;;;;9.30;62.73;100835.91;688844;28;2093;-82
2022/05/31 01:36:06;;;;;;;10.75;6.50;;;;;;;9.28;62.81;100834.09;689024;28;1058;-82
2022/05/31 01:36:52;;;;;;;10.75;6.28;;;;;;;9.27;62.59;100834.94;682436;28;1346;-82
2022/05/31 01:37:13;;;;;;;8.27;6.70;;;;;;;9.20;62.83;100831.19;690005;28;1213;-81
2022/05/31 01:37:46;;;;;;;10.00;7.10;;;;;;;9.17;62.63;100833.72;686973;28;1056;-82
2022/05/31 01:38:14;;;;;;;10.65;7.38;;;;;;;9.16;62.96;100826.75;686847;28;2749;-81
2022/05/31 01:38:43;;;;;;;8.10;6.70;;;;;;;9.18;62.85;100835.47;685027;28;2704;-82
2022/05/31 01:39:11;;;;;;;7.00;6.22;;;;;;;9.11;63.00;100828.28;692601;28;1671;-82
2022/05/31 01:39:42;;;;;;;7.43;5.90;;;;;;;9.13;63.02;100829.22;689468;28;1138;-82
2022/05/31 01:40:12;;;;;;;9.32;6.30;;;;;;;9.10;63.07;100827.38;687316;28;1094;-82
2022/05/31 01:41:03;;;;;;;9.18;6.75;;;;;;;9.13;62.66;100834.41;688673;28;1308;-81
2022/05/31 01:41:34;;;;;;;9.38;6.90;;;;;;;9.07;62.86;100821.22;687211;28;1985;-81
2022/05/31 01:41:59;;;;;;;9.02;7.07;;;;;;;9.12;62.85;100830.94;687529;28;850;-82
2022/05/31 01:42:42;;;;;;;11.00;6.80;;;;;;;9.11;63.20;100833.50;684621;28;2050;-81
2022/05/31 01:43:03;;;;;;;9.20;6.75;;;;;;;9.09;63.22;100832.56;689974;28;1215;-82
2022/05/31 01:43:24;;;;;;;7.65;6.85;;;;;;;9.03;62.78;100822.81;689248;28;1594;-81
2022/05/31 01:43:47;;;;;;;8.47;7.20;;;;;;;9.01;62.74;100821.84;683986;28;1392;-81
2022/05/31 01:44:14;;;;;;;8.90;7.05;;;;;;;9.00;63.27;100823.59;687404;28;1068;-81
2022/05/31 01:44:37;;;;;;;10.13;6.70;;;;;;;9.03;63.44;100826.28;687437;28;1080;-82
2022/05/31 01:45:03;;;;;;;11.05;6.43;;;;;;;8.92;63.55;100814.63;687210;28;1653;-82
2022/05/31 01:45:30;;;;;;;11.18;6.80;;;;;;;9.00;63.51;100831.41;687409;28;1074;-82
2022/05/31 01:45:58;;;;;;;10.85;6.90;;;;;;;8.93;63.44;100819.00;684006;28;1576;-81
2022/05/31 01:46:29;;;;;;;8.40;6.80;;;;;;;8.89;63.43;100814.50;683864;28;1135;-81
2022/05/31 01:46:52;;;;;;;8.48;6.70;;;;;;;8.86;63.19;100815.28;684911;28;1647;-82
2022/05/31 01:47:13;;;;;;;8.88;6.65;;;;;;;8.90;63.53;100819.78;684732;28;973;-82
2022/05/31 01:47:36;;;;;;;9.00;6.43;;;;;;;8.94;63.46;100828.56;685528;28;1743;-82
2022/05/31 01:48:00;;;;;;;9.30;6.45;;;;;;;8.94;63.50;100828.56;687297;28;1272;-82
2022/05/31 01:48:22;;;;;;;8.60;6.63;;;;;;;8.92;63.61;100832.84;686963;28;1289;-82
2022/05/31 01:48:43;;;;;;;8.82;6.80;;;;;;;8.90;63.73;100824.06;683772;28;1308;-81
2022/05/31 01:49:08;;;;;;;9.80;6.80;;;;;;;8.92;63.69;100827.66;683674;28;1372;-82
2022/05/31 01:49:38;;;;;;;10.05;6.53;;;;;;;8.92;63.93;100832.84;687119;28;1108;-81
2022/05/31 01:49:59;;;;;;;9.30;7.07;;;;;;;8.93;63.88;100833.72;690107;28;784;-82
2022/05/31 01:50:20;;;;;;;8.48;7.13;;;;;;;8.96;63.41;100836.44;687753;28;1176;-82
2022/05/31 01:50:45;;;;;;;9.02;7.18;;;;;;;8.90;63.51;100824.06;692530;28;1525;-81
2022/05/31 01:51:06;;;;;;;9.15;7.05;;;;;;;8.90;63.67;100824.06;689946;28;1737;-81
2022/05/31 01:51:27;;;;;;;9.05;7.05;;;;;;;8.96;63.88;100831.25;688143;28;1280;-81
2022/05/31 01:51:49;;;;;;;7.90;6.60;;;;;;;8.98;63.53;100829.56;686049;28;1157;-82
2022/05/31 01:52:12;;;;;;;9.57;6.90;;;;;;;8.96;63.67;100831.25;686899;28;1427;-82
2022/05/31 01:52:33;;;;;;;11.82;6.90;;;;;;;8.94;64.10;100825.97;687930;28;1252;-81
2022/05/31 01:52:54;;;;;;;13.25;7.30;;;;;;;8.94;64.19;100822.47;686977;28;1761;-81
2022/05/31 01:53:16;;;;;;;10.77;7.60;;;;;;;9.01;63.77;100834.88;684651;28;1359;-81
2022/05/31 01:53:40;;;;;;;10.57;7.28;;;;;;;9.04;63.93;100837.59;685800;28;1292;-82
2022/05/31 01:54:01;;;;;;;10.98;7.30;;;;;;;8.96;63.53;100813.88;686798;28;1870;-82
2022/05/31 01:54:26;;;;;;;13.27;7.63;;;;;;;9.01;63.81;100822.75;686546;28;1206;-81
2022/05/31 01:54:48;;;;;;;11.45;7.45;;;;;;;8.98;63.80;100812.22;688317;28;1487;-81
2022/05/31 01:55:10;;;;;;;12.32;7.70;;;;;;;8.94;63.63;100810.34;687237;28;1375;-82
2022/05/31 01:55:33;;;;;;;10.10;6.72;;;;;;;9.00;63.70;100822.69;685132;28;1376;-82
2022/05/31 01:55:54;;;;;;;10.32;7.10;;;;;;;9.00;63.58;100825.28;684325;28;1604;-81
2022/05/31 01:56:36;;;;;;;10.45;7.18;;;;;;;9.05;63.38;100822.00;689717;28;1267;-81
2022/05/31 01:57:04;;;;;;;9.50;7.03;;;;;;;9.05;63.78;100828.97;687324;28;1487;-82
2022/05/31 01:57:25;;;;;;;8.63;6.80;;;;;;;8.97;63.78;100815.66;688231;28;2345;-81
2022/05/31 01:57:53;;;;;;;8.80;7.00;;;;;;;9.01;63.75;100822.75;689942;28;1249;-81
2022/05/31 01:58:21;;;;;;;9.80;7.10;;;;;;;8.97;63.70;100812.19;689540;28;1040;-81
2022/05/31 01:58:47;;;;;;;10.60;7.07;;;;;;;8.94;63.47;100809.47;687016;28;1116;-81
2022/05/31 01:59:09;;;;;;;11.73;7.32;;;;;;;8.97;63.71;100822.59;690023;28;1246;-82
2022/05/31 01:59:34;;;;;;;11.02;7.10;;;;;;;8.99;63.92;100828.72;692227;28;1058;-82
2022/05/31 02:00:01;;;;;;;10.10;7.18;;;;;;;8.91;63.85;100815.47;692509;28;2180;-82
2022/05/31 02:00:23;;;;;;;9.00;6.97;;;;;;;8.97;63.51;100827.81;690069;28;934;-82
2022/05/31 02:00:45;;;;;;;9.05;6.70;;;;;;;8.96;63.63;100824.31;689370;28;1493;-81
2022/05/31 02:01:09;;;;;;;8.80;6.90;;;;;;;8.88;63.69;100811.03;684623;28;1115;-81
2022/05/31 02:01:33;;;;;;;8.27;6.93;;;;;;;8.90;63.70;100819.78;687369;28;1348;-81
2022/05/31 02:01:56;;;;;;;8.05;7.18;;;;;;;8.89;63.74;100817.09;687347;28;1106;-82
2022/05/31 02:02:18;;;;;;;9.05;7.10;;;;;;;8.86;63.79;100811.81;690951;28;1474;-82
2022/05/31 02:02:39;;;;;;;9.10;6.90;;;;;;;8.91;64.10;100820.66;687953;28;1206;-81
2022/05/31 02:03:03;;;;;;;9.35;7.15;;;;;;;8.86;63.85;100811.81;687313;28;1162;-82
2022/05/31 02:03:41;;;;;;;8.23;7.07;;;;;;;8.86;63.99;100820.47;690037;28;835;-81
2022/05/31 02:04:03;;;;;;;9.13;7.20;;;;;;;8.82;63.79;100812.50;692387;28;1285;-81
2022/05/31 02:04:23;;;;;;;10.00;7.40;;;;;;;8.83;64.14;100811.72;689916;28;1282;-82
2022/05/31 02:04:47;;;;;;;10.88;6.90;;;;;;;8.83;63.88;100815.19;684158;28;1215;-82
2022/05/31 02:05:08;;;;;;;10.20;6.80;;;;;;;8.76;63.86;100806.28;684693;28;982;-81
2022/05/31 02:05:29;;;;;;;9.18;7.28;;;;;;;8.77;64.18;100805.44;687170;28;1127;-81
2022/05/31 02:05:52;;;;;;;8.27;7.47;;;;;;;8.81;64.11;100818.53;692501;28;1638;-81
2022/05/31 02:06:28;;;;;;;8.20;7.20;;;;;;;8.75;63.83;100812.31;692473;28;1082;-82
2022/05/31 02:07:10;;;;;;;9.55;7.22;;;;;;;8.82;64.14;100825.53;686337;28;1357;-81
2022/05/31 02:07:33;;;;;;;9.07;7.10;;;;;;;8.75;64.28;100804.50;685410;28;1121;-82